createdAt,value
2022-08-17T00:01:27.757Z,3.67
2022-08-17T00:04:13.403Z,3.72
2022-08-17T00:07:02.191Z,3.90
2022-08-17T00:09:47.638Z,4.30
2022-08-17T00:12:44.565Z,3.75
2022-08-17T00:15:30.199Z,4.30
2022-08-17T00:18:57.549Z,4.13
2022-08-17T00:21:23.914Z,3.78
2022-08-17T00:24:11.167Z,4.18
2022-08-17T00:26:56.871Z,4.85
2022-08-17T00:29:42.294Z,4.63
2022-08-17T00:33:10.813Z,4.60
2022-08-17T00:35:33.937Z,5.38
2022-08-17T00:38:20.214Z,5.53
2022-08-17T00:41:12.222Z,6.30
2022-08-17T00:44:03.940Z,5.70
2022-08-17T00:46:49.580Z,6.22
2022-08-17T00:49:34.987Z,6.30
2022-08-17T00:52:27.629Z,6.78
2022-08-17T00:55:13.515Z,6.13
2022-08-17T00:58:03.234Z,6.28
2022-08-17T01:00:49.875Z,6.57
2022-08-17T01:03:37.410Z,6.82
2022-08-17T01:06:24.057Z,6.60
2022-08-17T01:09:09.824Z,6.75
2022-08-17T01:11:55.151Z,7.00
2022-08-17T01:14:41.376Z,7.97
2022-08-17T01:17:28.560Z,8.20
2022-08-17T01:20:14.107Z,7.80
2022-08-17T01:23:01.650Z,7.70
2022-08-17T01:25:50.939Z,7.57
2022-08-17T01:28:55.168Z,8.18
2022-08-17T01:31:49.230Z,8.57
2022-08-17T01:34:43.671Z,8.57
2022-08-17T01:37:39.714Z,8.20
2022-08-17T01:40:39.199Z,8.55
2022-08-17T01:43:32.745Z,8.68
2022-08-17T01:46:33.075Z,8.88
2022-08-17T01:49:18.855Z,8.63
2022-08-17T01:52:08.564Z,8.38
2022-08-17T01:54:54.799Z,8.63
2022-08-17T01:57:40.077Z,8.90
2022-08-17T02:00:27.446Z,10.07
2022-08-17T02:03:34.800Z,9.45
2022-08-17T02:06:27.449Z,9.80
2022-08-17T02:09:16.745Z,9.43
2022-08-17T02:12:37.337Z,10.45
2022-08-17T02:15:12.497Z,10.05
2022-08-17T02:17:58.225Z,9.10
2022-08-17T02:20:43.905Z,9.32
2022-08-17T02:23:32.303Z,9.75
2022-08-17T02:26:24.022Z,9.68
2022-08-17T02:29:22.542Z,9.57
2022-08-17T02:32:27.996Z,9.95
2022-08-17T02:35:14.546Z,9.65
2022-08-17T02:38:07.379Z,8.75
2022-08-17T02:40:53.119Z,9.45
2022-08-17T02:43:38.546Z,8.73
2022-08-17T02:46:24.036Z,9.73
2022-08-17T02:49:09.758Z,9.50
2022-08-17T02:51:58.246Z,10.55
2022-08-17T02:54:45.153Z,9.32
2022-08-17T02:57:30.717Z,9.45
2022-08-17T03:00:23.271Z,9.75
2022-08-17T03:03:10.950Z,10.13
2022-08-17T03:05:56.827Z,9.85
2022-08-17T03:08:42.797Z,10.13
2022-08-17T03:11:29.077Z,10.25
2022-08-17T03:14:14.877Z,10.07
2022-08-17T03:17:01.258Z,8.95
2022-08-17T03:19:46.674Z,8.63
2022-08-17T03:22:38.483Z,9.23
2022-08-17T03:25:30.738Z,8.13
2022-08-17T03:28:17.378Z,8.35
2022-08-17T03:31:03.921Z,8.25
2022-08-17T03:33:53.376Z,8.40
2022-08-17T03:36:40.249Z,8.30
2022-08-17T03:39:25.850Z,9.13
2022-08-17T03:42:31.578Z,7.75
2022-08-17T03:45:44.120Z,8.75
2022-08-17T03:48:49.316Z,9.13
2022-08-17T03:51:55.877Z,8.75
2022-08-17T03:55:02.522Z,9.20
2022-08-17T03:57:49.363Z,8.77
2022-08-17T04:00:36.770Z,9.63
2022-08-17T04:03:25.984Z,8.32
2022-08-17T04:06:12.018Z,9.10
2022-08-17T04:25:35.477Z,10.35
2022-08-17T04:28:21.191Z,11.30
2022-08-17T04:31:07.794Z,12.00
2022-08-17T04:33:54.608Z,12.65
2022-08-17T04:36:40.805Z,10.95
2022-08-17T04:39:37.296Z,12.48
2022-08-17T04:42:22.787Z,13.27
2022-08-17T04:45:08.397Z,11.32
2022-08-17T04:47:57.007Z,11.60
2022-08-17T04:50:47.324Z,10.68
2022-08-17T04:53:33.084Z,9.13
2022-08-17T04:56:19.435Z,9.65
2022-08-17T04:59:08.978Z,9.57
2022-08-17T05:01:57.630Z,10.07
2022-08-17T05:04:46.246Z,10.18
2022-08-17T05:07:33.175Z,9.60
2022-08-17T05:10:20.810Z,9.48
2022-08-17T05:13:15.393Z,9.38
2022-08-17T05:16:03.957Z,9.32
2022-08-17T05:18:50.131Z,9.48
2022-08-17T05:21:35.648Z,9.88
2022-08-17T05:24:38.528Z,10.05
2022-08-17T05:27:30.842Z,9.57
2022-08-17T05:30:21.730Z,9.38
2022-08-17T05:33:10.965Z,9.95
2022-08-17T05:35:59.039Z,9.25
2022-08-17T05:38:47.556Z,9.27
2022-08-17T05:41:34.052Z,10.07
2022-08-17T05:44:19.565Z,9.50
2022-08-17T05:47:07.344Z,9.63
2022-08-17T05:49:57.409Z,9.57
2022-08-17T05:52:46.112Z,9.75
2022-08-17T05:56:30.276Z,9.85
2022-08-17T05:59:45.346Z,9.30
2022-08-17T06:02:51.482Z,9.00
2022-08-17T06:05:52.224Z,8.43
2022-08-17T06:08:56.641Z,8.47
2022-08-17T06:11:47.886Z,9.15
2022-08-17T06:15:09.655Z,8.60
2022-08-17T06:17:59.983Z,8.98
2022-08-17T06:20:52.956Z,9.07
2022-08-17T06:23:49.797Z,9.93
2022-08-17T06:26:43.259Z,9.13
2022-08-17T06:29:38.265Z,9.38
2022-08-17T06:32:25.150Z,9.73
2022-08-17T06:35:42.538Z,9.90
2022-08-17T06:38:37.261Z,10.18
2022-08-17T06:41:52.368Z,9.32
2022-08-17T06:44:51.209Z,9.90
2022-08-17T06:47:49.423Z,9.55
2022-08-17T06:50:38.866Z,8.98
2022-08-17T06:53:37.667Z,8.38
2022-08-17T06:56:52.716Z,8.07
2022-08-17T06:59:56.786Z,7.90
2022-08-17T07:02:51.339Z,8.40
2022-08-17T07:05:53.063Z,8.77
2022-08-17T07:08:45.858Z,8.25
2022-08-17T07:15:01.992Z,8.73
2022-08-17T07:17:50.437Z,8.38
2022-08-17T07:20:43.500Z,8.90
2022-08-17T07:23:44.656Z,8.82
2022-08-17T07:26:30.225Z,8.77
2022-08-17T07:29:19.692Z,8.85
2022-08-17T07:32:06.355Z,9.27
2022-08-17T07:35:23.620Z,8.02
2022-08-17T07:38:31.635Z,9.18
2022-08-17T07:41:20.761Z,8.52
2022-08-17T07:44:17.180Z,9.15
2022-08-17T07:47:35.892Z,8.40
2022-08-17T07:50:31.984Z,9.27
2022-08-17T07:53:24.591Z,9.75
2022-08-17T07:56:34.522Z,10.27
2022-08-17T07:59:24.952Z,9.52
2022-08-17T08:02:40.762Z,9.55
2022-08-17T08:05:50.375Z,9.70
2022-08-17T08:08:45.769Z,9.73
2022-08-17T08:11:41.265Z,10.30
2022-08-17T08:14:40.667Z,10.00
2022-08-17T08:17:35.874Z,9.82
2022-08-17T08:20:53.870Z,9.90
2022-08-17T08:24:03.512Z,10.85
2022-08-17T08:27:02.951Z,11.20
2022-08-17T08:30:08.437Z,10.98
2022-08-17T08:33:03.226Z,10.95
2022-08-17T08:36:00.081Z,10.95
2022-08-17T08:39:04.652Z,10.65
2022-08-17T08:42:20.823Z,10.23
2022-08-17T08:45:19.726Z,10.60
2022-08-17T08:48:52.877Z,10.48
2022-08-17T08:51:51.971Z,10.45
2022-08-17T08:54:47.639Z,10.55
2022-08-17T08:58:07.289Z,10.77
2022-08-17T09:00:58.708Z,10.23
2022-08-17T09:04:24.746Z,9.75
2022-08-17T09:07:39.074Z,10.15
2022-08-17T09:12:02.643Z,9.73
2022-08-17T09:15:38.264Z,9.73
2022-08-17T09:19:01.747Z,9.65
2022-08-17T09:22:02.410Z,10.95
2022-08-17T09:25:06.837Z,10.25
2022-08-17T09:28:01.650Z,10.15
2022-08-17T09:30:55.174Z,10.20
2022-08-17T09:33:46.052Z,11.00
2022-08-17T09:36:41.040Z,11.48
2022-08-17T09:39:34.858Z,10.40
2022-08-17T09:42:32.954Z,11.60
2022-08-17T09:45:51.204Z,11.45
2022-08-17T09:48:57.303Z,13.25
2022-08-17T09:51:52.228Z,14.25
2022-08-17T09:54:40.970Z,15.15
2022-08-17T09:57:59.084Z,17.42
2022-08-17T10:00:56.264Z,17.50
2022-08-17T10:04:03.285Z,17.40
2022-08-17T10:07:01.088Z,14.55
2022-08-17T10:10:14.351Z,16.30
2022-08-17T10:13:32.235Z,17.02
2022-08-17T10:16:43.878Z,15.80
2022-08-17T10:19:54.268Z,12.05
2022-08-17T10:23:16.030Z,11.75
2022-08-17T10:26:13.561Z,10.60
2022-08-17T10:29:01.593Z,10.70
2022-08-17T10:31:53.431Z,10.48
2022-08-17T10:37:49.413Z,9.77
2022-08-17T10:41:12.049Z,9.88
2022-08-17T10:44:40.424Z,11.20
2022-08-17T10:47:15.408Z,10.55
2022-08-17T10:50:42.617Z,10.75
2022-08-17T10:53:31.348Z,9.32
2022-08-17T10:56:18.937Z,10.50
2022-08-17T10:59:04.182Z,11.98
2022-08-17T11:01:49.608Z,11.23
2022-08-17T11:05:06.368Z,10.15
2022-08-17T11:07:54.671Z,9.43
2022-08-17T11:10:52.718Z,9.65
2022-08-17T11:14:08.760Z,9.68
2022-08-17T11:17:03.655Z,8.95
2022-08-17T11:19:54.737Z,10.75
2022-08-17T11:22:43.110Z,11.45
2022-08-17T11:25:56.807Z,11.15
2022-08-17T11:28:52.897Z,10.95
2022-08-17T11:31:43.455Z,10.48
2022-08-17T11:34:31.720Z,10.82
2022-08-17T11:37:35.845Z,11.45
2022-08-17T11:40:42.060Z,11.27
2022-08-17T11:43:43.741Z,10.43
2022-08-17T11:47:09.735Z,10.52
2022-08-17T11:50:27.976Z,8.85
2022-08-17T11:53:49.818Z,8.73
2022-08-17T11:56:43.299Z,8.95
2022-08-17T11:59:36.020Z,8.93
2022-08-17T12:02:32.689Z,9.68
2022-08-17T12:05:21.140Z,10.02
2022-08-17T12:08:19.695Z,8.40
2022-08-17T12:12:11.009Z,9.23
2022-08-17T12:15:11.500Z,9.20
2022-08-17T12:17:58.359Z,8.90
2022-08-17T12:20:56.659Z,8.85
2022-08-17T12:23:54.975Z,8.25
2022-08-17T12:26:44.017Z,8.38
2022-08-17T12:29:35.182Z,9.27
2022-08-17T12:32:28.286Z,8.38
2022-08-17T12:35:33.096Z,7.65
2022-08-17T12:38:31.916Z,7.57
2022-08-17T12:41:40.844Z,10.02
2022-08-17T12:44:44.813Z,7.32
2022-08-17T12:47:37.341Z,8.13
2022-08-17T12:50:28.505Z,7.32
2022-08-17T12:53:24.057Z,7.40
2022-08-17T12:56:13.316Z,8.27
2022-08-17T12:58:59.942Z,7.22
2022-08-17T13:01:48.286Z,7.68
2022-08-17T13:04:33.524Z,7.40
2022-08-17T13:07:42.617Z,6.82
2022-08-17T13:10:33.299Z,6.43
2022-08-17T13:13:24.692Z,6.70
2022-08-17T13:16:14.329Z,6.70
2022-08-17T13:19:09.664Z,6.80
2022-08-17T13:21:59.139Z,7.15
2022-08-17T13:24:54.181Z,6.68
2022-08-17T13:27:43.145Z,6.78
2022-08-17T13:30:32.593Z,6.60
2022-08-17T13:33:43.239Z,6.00
2022-08-17T13:38:51.717Z,6.32
2022-08-17T13:41:38.201Z,6.93
2022-08-17T13:44:40.601Z,6.88
2022-08-17T13:47:27.539Z,6.10
2022-08-17T13:50:20.957Z,6.15
2022-08-17T13:53:23.139Z,6.90
2022-08-17T13:56:37.407Z,6.63
2022-08-17T13:59:55.126Z,5.88
2022-08-17T14:02:43.892Z,6.18
2022-08-17T14:05:31.727Z,5.43
2022-08-17T14:08:20.771Z,5.45
2022-08-17T14:11:06.669Z,5.93
2022-08-17T14:13:52.191Z,4.55
2022-08-17T14:16:41.633Z,5.13
2022-08-17T14:19:26.956Z,5.07
2022-08-17T14:22:25.656Z,5.30
2022-08-17T14:25:13.956Z,5.53
2022-08-17T14:27:59.982Z,5.35
2022-08-17T14:30:46.371Z,5.20
2022-08-17T14:33:31.931Z,5.00
2022-08-17T14:36:17.718Z,4.95
2022-08-17T14:39:03.170Z,5.15
2022-08-17T14:41:49.087Z,4.63
2022-08-17T14:44:34.950Z,4.40
2022-08-17T14:47:20.809Z,5.00
2022-08-17T14:50:11.330Z,5.00
2022-08-17T14:52:58.114Z,5.00
2022-08-17T14:55:46.998Z,4.47
2022-08-17T14:58:33.192Z,4.95
2022-08-17T15:01:20.488Z,5.03
2022-08-17T15:04:06.312Z,4.68
2022-08-17T15:06:51.589Z,4.70
2022-08-17T15:09:36.958Z,4.93
2022-08-17T15:12:26.441Z,5.07
2022-08-17T15:15:17.998Z,4.80
2022-08-17T15:18:03.846Z,5.57
2022-08-17T15:20:50.262Z,5.38
2022-08-17T15:23:36.438Z,5.28
2022-08-17T15:26:26.229Z,5.65
2022-08-17T15:29:11.853Z,5.88
2022-08-17T15:32:00.570Z,5.45
2022-08-17T15:34:46.475Z,5.75
2022-08-17T15:37:32.205Z,5.60
2022-08-17T15:40:18.142Z,5.22
2022-08-17T15:43:08.587Z,5.65
2022-08-17T15:46:02.259Z,5.20
2022-08-17T15:48:53.407Z,5.65
2022-08-17T15:51:38.981Z,5.45
2022-08-17T15:54:24.351Z,5.22
2022-08-17T15:57:09.731Z,6.00
2022-08-17T15:59:58.751Z,6.10
2022-08-17T16:03:44.716Z,6.57
2022-08-17T16:05:51.400Z,5.72
2022-08-17T16:08:38.641Z,6.55
2022-08-17T16:11:26.015Z,7.05
2022-08-17T16:14:11.367Z,6.72
2022-08-17T16:16:59.896Z,6.95
2022-08-17T16:19:46.878Z,7.07
2022-08-17T16:22:36.441Z,6.75
2022-08-17T16:25:52.651Z,6.90
2022-08-17T16:28:36.375Z,7.93
2022-08-17T16:31:22.447Z,7.10
2022-08-17T16:34:17.549Z,6.93
2022-08-17T16:37:04.478Z,6.88
2022-08-17T16:39:50.208Z,9.05
2022-08-17T16:42:38.579Z,7.78
2022-08-17T16:45:27.503Z,7.15
2022-08-17T16:48:13.066Z,6.90
2022-08-17T16:51:02.951Z,7.80
2022-08-17T16:53:57.887Z,7.80
2022-08-17T16:56:46.438Z,7.22
2022-08-17T16:59:41.917Z,8.05
2022-08-17T17:02:37.174Z,9.95
2022-08-17T17:08:22.970Z,8.70
2022-08-17T17:11:23.084Z,8.05
2022-08-17T17:14:20.234Z,7.68
2022-08-17T17:17:33.503Z,7.22
2022-08-17T17:20:29.008Z,28.60
2022-08-17T17:23:34.339Z,13.93
2022-08-17T17:26:23.718Z,8.70
2022-08-17T17:29:09.056Z,8.20
2022-08-17T17:32:20.783Z,7.32
2022-08-17T17:37:57.260Z,9.25
2022-08-17T17:40:47.362Z,8.35
2022-08-17T17:43:39.739Z,8.65
2022-08-17T17:46:31.388Z,8.90
2022-08-17T17:49:18.450Z,8.80
2022-08-17T17:52:16.903Z,8.73
2022-08-17T17:55:15.558Z,8.80
2022-08-17T17:58:13.443Z,9.13
2022-08-17T18:01:33.303Z,8.20
2022-08-17T18:04:23.588Z,8.80
2022-08-17T18:07:31.438Z,9.30
2022-08-17T18:10:49.011Z,8.25
2022-08-17T18:14:14.758Z,8.60
2022-08-17T18:17:02.194Z,8.43
2022-08-17T18:19:48.309Z,8.20
2022-08-17T18:22:34.174Z,8.30
2022-08-17T18:25:59.525Z,8.05
2022-08-17T18:28:50.766Z,7.30
2022-08-17T18:31:36.201Z,7.63
2022-08-17T18:37:45.069Z,8.18
2022-08-17T18:40:34.643Z,8.07
2022-08-17T18:43:44.161Z,8.32
2022-08-17T18:46:40.149Z,7.90
2022-08-17T18:49:28.433Z,8.98
2022-08-17T18:52:30.325Z,8.63
2022-08-17T18:58:20.326Z,8.30
2022-08-17T19:01:19.053Z,8.73
2022-08-17T19:04:05.580Z,8.32
2022-08-17T19:07:06.888Z,8.35
2022-08-17T19:10:28.834Z,9.35
2022-08-17T19:13:38.223Z,8.00
2022-08-17T19:17:01.086Z,7.47
2022-08-17T19:19:54.544Z,8.05
2022-08-17T19:23:08.187Z,7.28
2022-08-17T19:25:58.470Z,6.70
2022-08-17T19:28:53.218Z,7.50
2022-08-17T19:31:38.872Z,7.85
2022-08-17T19:34:30.242Z,7.55
2022-08-17T19:37:48.194Z,7.93
2022-08-17T19:40:54.138Z,7.22
2022-08-17T19:43:55.520Z,7.28
2022-08-17T19:46:56.324Z,7.37
2022-08-17T19:50:01.336Z,6.93
2022-08-17T19:53:00.426Z,7.90
2022-08-17T19:56:14.867Z,7.50
2022-08-17T19:59:11.293Z,7.75
2022-08-17T20:02:02.934Z,7.07
2022-08-17T20:04:51.950Z,7.82
2022-08-17T20:07:53.882Z,7.10
2022-08-17T20:10:54.821Z,6.53
2022-08-17T20:13:49.596Z,7.45
2022-08-17T20:16:35.354Z,7.03
2022-08-17T20:19:27.520Z,7.90
2022-08-17T20:22:29.034Z,7.85
2022-08-17T20:26:03.798Z,8.07
2022-08-17T20:29:20.212Z,8.27
2022-08-17T20:32:31.039Z,8.05
2022-08-17T20:35:28.612Z,8.60
2022-08-17T20:38:54.405Z,7.90
2022-08-17T20:42:05.110Z,8.93
2022-08-17T20:44:58.279Z,7.45
2022-08-17T20:48:07.746Z,6.93
2022-08-17T20:51:03.190Z,8.18
2022-08-17T20:53:53.508Z,7.78
2022-08-17T20:56:52.022Z,8.02
2022-08-17T20:59:43.728Z,8.05
2022-08-17T21:02:32.311Z,8.05
2022-08-17T21:05:32.447Z,8.15
2022-08-17T21:08:45.273Z,8.13
2022-08-17T21:12:02.890Z,8.20
2022-08-17T21:15:01.504Z,8.70
2022-08-17T21:17:59.871Z,7.78
2022-08-17T21:21:19.739Z,7.85
2022-08-17T21:24:08.382Z,7.78
2022-08-17T21:27:04.021Z,8.90
2022-08-17T21:30:14.964Z,8.55
2022-08-17T21:33:21.563Z,8.07
2022-08-17T21:36:11.716Z,8.77
2022-08-17T21:39:06.656Z,8.55
2022-08-17T21:41:55.911Z,8.52
2022-08-17T21:44:49.403Z,7.70
2022-08-17T21:47:35.085Z,8.23
2022-08-17T21:50:23.768Z,8.45
2022-08-17T21:53:14.711Z,8.43
2022-08-17T21:56:00.902Z,9.20
2022-08-17T21:58:55.798Z,8.95
2022-08-17T22:01:43.080Z,8.57
2022-08-17T22:04:34.589Z,9.32
2022-08-17T22:07:38.365Z,9.15
2022-08-17T22:10:31.821Z,8.60
2022-08-17T22:13:17.707Z,8.13
2022-08-17T22:16:15.695Z,8.88
2022-08-17T22:19:14.566Z,8.65
2022-08-17T22:22:05.651Z,8.43
2022-08-17T22:24:56.880Z,9.13
2022-08-17T22:27:52.139Z,9.48
2022-08-17T22:31:00.349Z,8.80
2022-08-17T22:33:57.883Z,9.18
2022-08-17T22:36:43.585Z,9.45
2022-08-17T22:39:28.875Z,8.52
2022-08-17T22:42:15.344Z,8.77
2022-08-17T22:45:00.782Z,8.52
2022-08-17T22:47:48.910Z,8.73
2022-08-17T22:50:34.696Z,8.63
2022-08-17T22:53:41.988Z,10.00
2022-08-17T22:56:46.036Z,9.68
2022-08-17T22:59:50.295Z,9.05
2022-08-17T23:02:36.282Z,10.20
2022-08-17T23:05:43.091Z,10.27
2022-08-17T23:08:28.387Z,10.40
2022-08-17T23:11:15.020Z,10.27
2022-08-17T23:14:01.405Z,10.65
2022-08-17T23:16:50.968Z,10.30
2022-08-17T23:19:36.428Z,10.77
2022-08-17T23:22:21.714Z,10.60
2022-08-17T23:25:07.947Z,10.68
2022-08-17T23:27:53.380Z,10.13
2022-08-17T23:30:42.574Z,10.80
2022-08-17T23:33:34.437Z,10.40
2022-08-17T23:36:20.147Z,10.25
2022-08-17T23:39:06.715Z,10.45
2022-08-17T23:41:53.530Z,10.30
2022-08-17T23:44:40.973Z,11.68
2022-08-17T23:47:26.596Z,10.63
2022-08-17T23:50:12.009Z,13.93
2022-08-17T23:52:57.928Z,10.93
2022-08-17T23:55:43.360Z,11.00
2022-08-17T23:58:29.431Z,11.77
